Pine Mountain Valley, Georgia
Current Conditions -  °F | °C
As of 10:57 AM on Sunday 23 Nov 2014 (Local Time) from KCSG Reporting Station
Light Rain Light Rain  
Wind Chill: 61°   Ceiling: 600
Heat Index: 61°   Visibility: 3mi
Dew Point: 59°   Wind: 10mph
Humidity: 94%   Direction: 100°E
Pressure: 29.88"   Gusts: NA
Location:  32.8°N, 84.82°W
Report Text: KCSG 231557Z 10009KT 3SM -RA BR OVC006 16/15 A2988 RMK AO2 CIG 004V008 P0001
Loading
Personal Weather Stations






























Interactive Weather Map New forecast layout! Learn more

10-Day Weather Forecast

Advertisements
Track Severe Weather on mobile